Time;durP1;ratioP1;P1;durP2;ratioP2;P2;SDS_P1;SDS_P2;PMS_P1;PMS_P2;Temp;Humidity;BMP_temperature;BMP_pressure;BME280_temperature;BME280_humidity;BME280_pressure;Samples;Min_cycle;Max_cycle;Signal;HPM_P1;HPM_P2
2023/03/20 00:02:19;;;;;;;14.80;7.87;;;;;;;;;;4440720;32;20018;-80
2023/03/20 00:04:44;;;;;;;18.65;9.93;;;;;;;;;;4426510;32;20044;-79
2023/03/20 00:07:11;;;;;;;;;;;;;;;;;;4445005;32;20026;-80
2023/03/20 00:09:36;;;;;;;16.83;9.05;;;;;;;;;;4439732;32;19987;-79
2023/03/20 00:12:02;;;;;;;;;;;;;;;;;;4424728;32;20021;-80
2023/03/20 00:14:27;;;;;;;15.18;8.15;;;;;;;;;;4426005;32;20356;-79
2023/03/20 00:16:52;;;;;;;;;;;;;;;;;;4438534;32;20152;-79
2023/03/20 00:19:19;;;;;;;24.35;9.88;;;;;;;;;;4438974;32;19955;-80
2023/03/20 00:21:46;;;;;;;25.45;10.63;;;;;;;;;;4423927;32;20212;-79
2023/03/20 00:24:12;;;;;;;18.90;9.35;;;;;;;;;;4438307;32;20026;-79
2023/03/20 00:26:37;;;;;;;;;;;;;;;;;;4426259;32;20040;-79
2023/03/20 00:29:03;;;;;;;26.65;10.05;;;;;;;;;;4435829;32;19937;-79
2023/03/20 00:31:28;;;;;;;;;;;;;;;;;;4428121;32;20046;-79
2023/03/20 00:33:54;;;;;;;19.00;10.07;;;;;;;;;;4423885;32;20351;-79
2023/03/20 00:36:20;;;;;;;21.15;11.05;;;;;;;;;;4422342;32;20022;-80
2023/03/20 00:38:45;;;;;;;;;;;;;;;;;;4422674;32;20385;-80
2023/03/20 00:41:24;;;;;;;23.50;9.48;;;;;;;;;;4422953;32;19949;-79
2023/03/20 00:43:51;;;;;;;23.17;10.55;;;;;;;;;;4426283;32;20213;-78
2023/03/20 00:46:16;;;;;;;20.95;10.57;;;;;;;;;;4424624;32;20037;-78
2023/03/20 00:48:42;;;;;;;;;;;;;;;;;;4423151;32;20075;-78
2023/03/20 00:51:07;;;;;;;23.65;11.07;;;;;;;;;;4424291;32;19956;-79
2023/03/20 00:53:32;;;;;;;;;;;;;;;;;;4422201;32;20336;-78
2023/03/20 00:55:58;;;;;;;25.05;9.70;;;;;;;;;;4423239;32;19933;-80
2023/03/20 00:58:23;;;;;;;29.40;11.75;;;;;;;;;;4436365;32;20461;-78
2023/03/20 01:00:48;;;;;;;;;;;;;;;;;;4454016;32;20074;-79
2023/03/20 01:03:18;;;;;;;22.92;10.25;;;;;;;;;;4453598;32;19945;-79
2023/03/20 01:05:44;;;;;;;32.50;13.00;;;;;;;;;;4452909;32;20132;-78
2023/03/20 01:08:09;;;;;;;;;;;;;;;;;;4454624;32;20076;-79
2023/03/20 01:10:34;;;;;;;34.88;12.95;;;;;;;;;;4438797;32;19965;-79
2023/03/20 01:12:59;;;;;;;;;;;;;;;;;;4454991;32;20018;-79
2023/03/20 01:15:28;;;;;;;34.30;14.32;;;;;;;;;;4455826;32;19944;-78
2023/03/20 01:17:54;;;;;;;31.48;14.55;;;;;;;;;;4457302;32;20036;-79
2023/03/20 01:20:19;;;;;;;;;;;;;;;;;;4454658;32;20056;-79
2023/03/20 01:22:44;;;;;;;31.62;13.68;;;;;;;;;;4452844;32;19940;-79
2023/03/20 01:25:10;;;;;;;;;;;;;;;;;;4453844;32;20360;-79
2023/03/20 01:27:35;;;;;;;28.98;13.82;;;;;;;;;;4444521;32;19991;-79
2023/03/20 01:30:01;;;;;;;;;;;;;;;;;;4422423;32;20112;-79
2023/03/20 01:32:26;;;;;;;36.10;16.05;;;;;;;;;;4422089;32;20016;-79
2023/03/20 01:34:52;;;;;;;;;;;;;;;;;;4421955;32;20140;-79
2023/03/20 01:37:21;;;;;;;38.45;15.77;;;;;;;;;;4421791;32;20345;-79
2023/03/20 01:39:46;;;;;;;28.70;15.13;;;;;;;;;;4421987;32;20057;-79
2023/03/20 01:42:11;;;;;;;;;;;;;;;;;;4422667;32;20413;-80
2023/03/20 01:44:37;;;;;;;26.40;13.68;;;;;;;;;;4421879;32;19945;-80
2023/03/20 01:47:08;;;;;;;32.08;16.08;;;;;;;;;;4420583;32;20018;-79
2023/03/20 01:49:52;;;;;;;29.67;14.87;;;;;;;;;;4423835;32;20041;-78
2023/03/20 01:52:17;;;;;;;34.20;16.08;;;;;;;;;;4422534;32;20017;-79
2023/03/20 01:54:43;;;;;;;;;;;;;;;;;;4421747;32;20433;-80
2023/03/20 01:57:11;;;;;;;29.55;16.37;;;;;;;;;;4422185;32;19981;-80
2023/03/20 01:59:43;;;;;;;37.33;16.92;;;;;;;;;;4437760;32;20167;-79
2023/03/20 02:02:08;;;;;;;33.42;17.42;;;;;;;;;;4438275;32;20021;-79
2023/03/20 02:04:33;;;;;;;;;;;;;;;;;;4452657;32;20064;-79
2023/03/20 02:06:59;;;;;;;34.67;17.37;;;;;;;;;;4439909;32;19951;-79
2023/03/20 02:09:24;;;;;;;;;;;;;;;;;;4456946;32;20116;-79
2023/03/20 02:11:50;;;;;;;30.55;17.48;;;;;;;;;;4455152;32;19980;-79
2023/03/20 02:14:15;;;;;;;36.35;19.10;;;;;;;;;;4438417;32;20033;-79
2023/03/20 02:16:41;;;;;;;;;;;;;;;;;;4453515;32;20067;-79
2023/03/20 02:19:09;;;;;;;35.22;17.85;;;;;;;;;;4452437;32;20009;-80
2023/03/20 02:21:47;;;;;;;38.88;19.08;;;;;;;;;;4451858;32;20069;-80
2023/03/20 02:24:18;;;;;;;35.10;19.00;;;;;;;;;;4437849;32;20096;-80
2023/03/20 02:26:59;;;;;;;29.20;18.30;;;;;;;;;;4452470;32;20068;-79
2023/03/20 02:29:24;;;;;;;33.45;18.10;;;;;;;;;;4415632;32;20040;-80
2023/03/20 02:31:49;;;;;;;;;;;;;;;;;;4430258;32;20029;-80
2023/03/20 02:34:31;;;;;;;30.83;17.73;;;;;;;;;;4459382;32;19986;-80
2023/03/20 02:37:19;;;;;;;33.50;19.37;;;;;;;;;;4455374;32;20052;-79
2023/03/20 02:39:57;;;;;;;45.47;19.65;;;;;;;;;;4465139;32;20022;-80
2023/03/20 02:42:33;;;;;;;35.58;19.77;;;;;;;;;;4461562;32;20013;-80
2023/03/20 02:45:04;;;;;;;43.67;20.27;;;;;;;;;;4453463;32;20017;-80
2023/03/20 02:47:38;;;;;;;40.10;19.67;;;;;;;;;;4451911;32;20048;-80
2023/03/20 02:50:09;;;;;;;39.60;19.92;;;;;;;;;;4454019;32;20005;-80
2023/03/20 02:52:41;;;;;;;38.83;19.30;;;;;;;;;;4453778;32;20021;-80
2023/03/20 02:55:09;;;;;;;33.75;19.33;;;;;;;;;;4452843;32;20064;-80
2023/03/20 02:57:34;;;;;;;35.30;19.08;;;;;;;;;;4428995;32;20018;-80
2023/03/20 02:59:59;;;;;;;;;;;;;;;;;;4422127;32;20064;-80
2023/03/20 03:02:30;;;;;;;44.75;19.98;;;;;;;;;;4416134;32;19997;-80
2023/03/20 03:05:00;;;;;;;40.08;19.45;;;;;;;;;;4451688;32;20449;-80
2023/03/20 03:07:27;;;;;;;36.67;20.10;;;;;;;;;;4437243;32;20048;-80
2023/03/20 03:09:55;;;;;;;34.55;20.35;;;;;;;;;;4452047;32;20030;-80
2023/03/20 03:12:21;;;;;;;31.23;19.67;;;;;;;;;;4451317;32;20101;-80
2023/03/20 03:14:48;;;;;;;35.67;19.40;;;;;;;;;;4452040;32;20418;-79
2023/03/20 03:17:15;;;;;;;35.45;20.15;;;;;;;;;;4451819;32;20018;-80
2023/03/20 03:19:42;;;;;;;27.60;18.17;;;;;;;;;;4452018;32;20068;-80
2023/03/20 03:22:08;;;;;;;54.22;20.83;;;;;;;;;;4437322;32;20113;-81
2023/03/20 03:24:33;;;;;;;;;;;;;;;;;;4452463;32;20017;-80
2023/03/20 03:27:01;;;;;;;36.75;19.80;;;;;;;;;;4451256;32;19933;-80
2023/03/20 03:29:29;;;;;;;29.85;18.35;;;;;;;;;;4451424;32;20152;-80
2023/03/20 03:31:54;;;;;;;35.08;17.33;;;;;;;;;;4437089;32;20020;-80
2023/03/20 03:34:20;;;;;;;;;;;;;;;;;;4452022;32;20017;-80
2023/03/20 03:36:54;;;;;;;31.17;17.45;;;;;;;;;;4453882;32;19976;-79
2023/03/20 03:39:20;;;;;;;35.63;15.65;;;;;;;;;;4441590;32;20026;-80
2023/03/20 03:41:45;;;;;;;;;;;;;;;;;;4452565;32;20021;-80
2023/03/20 03:44:10;;;;;;;26.48;16.65;;;;;;;;;;4453510;32;19949;-79
2023/03/20 03:46:35;;;;;;;;;;;;;;;;;;4453551;32;20497;-81
2023/03/20 03:49:01;;;;;;;31.45;16.00;;;;;;;;;;4456238;32;19944;-79
2023/03/20 03:51:32;;;;;;;31.30;15.73;;;;;;;;;;4451896;32;20079;-80
2023/03/20 03:54:14;;;;;;;30.58;16.67;;;;;;;;;;4438824;32;20022;-80
2023/03/20 03:56:41;;;;;;;28.83;16.12;;;;;;;;;;4452519;32;20101;-80
2023/03/20 03:59:19;;;;;;;26.77;16.48;;;;;;;;;;4452866;32;20433;-80
2023/03/20 04:01:45;;;;;;;29.58;16.77;;;;;;;;;;4436940;32;20056;-79
2023/03/20 04:04:10;;;;;;;;;;;;;;;;;;4451699;32;20025;-79
2023/03/20 04:06:36;;;;;;;28.58;16.60;;;;;;;;;;4454898;32;19983;-79
2023/03/20 04:09:01;;;;;;;32.38;16.95;;;;;;;;;;4460239;32;20040;-79
2023/03/20 04:11:29;;;;;;;;;;;;;;;;;;4459501;32;20405;-79
2023/03/20 04:13:54;;;;;;;30.40;17.25;;;;;;;;;;4442355;32;19943;-79
2023/03/20 04:16:20;;;;;;;;;;;;;;;;;;4441948;32;20021;-78
2023/03/20 04:18:46;;;;;;;26.73;16.45;;;;;;;;;;4459138;32;20084;-78
2023/03/20 04:21:11;;;;;;;32.33;17.23;;;;;;;;;;4448758;32;20052;-79
2023/03/20 04:23:36;;;;;;;;;;;;;;;;;;4455945;32;20040;-79
2023/03/20 04:26:01;;;;;;;34.53;17.42;;;;;;;;;;4454043;32;20313;-78
2023/03/20 04:28:26;;;;;;;;;;;;;;;;;;4454418;32;20135;-79
2023/03/20 04:30:55;;;;;;;34.40;16.83;;;;;;;;;;4453427;32;19948;-78
2023/03/20 04:33:20;;;;;;;36.35;18.17;;;;;;;;;;4453076;32;20056;-78
2023/03/20 04:35:45;;;;;;;;;;;;;;;;;;4454448;32;20053;-77
2023/03/20 04:38:11;;;;;;;32.20;18.87;;;;;;;;;;4453066;32;19951;-78
2023/03/20 04:40:36;;;;;;;30.58;18.58;;;;;;;;;;4454507;32;20073;-79
2023/03/20 04:43:01;;;;;;;;;;;;;;;;;;4458531;32;20013;-79
2023/03/20 04:45:27;;;;;;;34.58;17.92;;;;;;;;;;4465494;32;19963;-79
2023/03/20 04:47:52;;;;;;;;;;;;;;;;;;4455199;32;20417;-78
2023/03/20 04:50:17;;;;;;;31.37;17.75;;;;;;;;;;4453672;32;19977;-79
2023/03/20 04:52:42;;;;;;;35.83;20.65;;;;;;;;;;4453241;32;20142;-79
2023/03/20 04:55:07;;;;;;;;;;;;;;;;;;4439515;32;20017;-80
2023/03/20 04:57:33;;;;;;;35.90;19.33;;;;;;;;;;4453019;32;19929;-79
2023/03/20 04:59:58;;;;;;;;;;;;;;;;;;4453824;32;20045;-80
2023/03/20 05:02:23;;;;;;;31.70;19.98;;;;;;;;;;4454041;32;19972;-78
2023/03/20 05:04:48;;;;;;;;;;;;;;;;;;4441723;32;20077;-79
2023/03/20 05:07:13;;;;;;;37.65;19.87;;;;;;;;;;4455797;32;19941;-78
2023/03/20 05:09:39;;;;;;;;;;;;;;;;;;4455752;32;20044;-78
2023/03/20 05:12:04;;;;;;;30.02;20.25;;;;;;;;;;4439293;32;19995;-78
2023/03/20 05:14:29;;;;;;;;;;;;;;;;;;4453876;32;20013;-78
2023/03/20 05:16:55;;;;;;;34.80;19.92;;;;;;;;;;4453556;32;19940;-77
2023/03/20 05:19:20;;;;;;;;;;;;;;;;;;4454830;32;20112;-78
2023/03/20 05:21:45;;;;;;;31.15;19.55;;;;;;;;;;4439177;32;19980;-78
2023/03/20 05:24:10;;;;;;;;;;;;;;;;;;4455350;32;20022;-80
2023/03/20 05:26:35;;;;;;;40.15;19.37;;;;;;;;;;4440883;32;19980;-78
2023/03/20 05:29:01;;;;;;;;;;;;;;;;;;4457569;32;20017;-78
2023/03/20 05:31:26;;;;;;;33.25;19.90;;;;;;;;;;4456950;32;20289;-79
2023/03/20 05:33:51;;;;;;;;;;;;;;;;;;4454629;32;20365;-79
2023/03/20 05:36:16;;;;;;;38.72;19.80;;;;;;;;;;4453203;32;19963;-79
2023/03/20 05:38:41;;;;;;;37.10;19.35;;;;;;;;;;4439704;32;20025;-79
2023/03/20 05:41:06;;;;;;;;;;;;;;;;;;4452716;32;20021;-79
2023/03/20 05:43:31;;;;;;;34.05;19.55;;;;;;;;;;4438125;32;20281;-79
2023/03/20 05:45:57;;;;;;;;;;;;;;;;;;4453098;32;20017;-79
2023/03/20 05:48:22;;;;;;;34.45;19.67;;;;;;;;;;4453483;32;19946;-79
2023/03/20 05:50:47;;;;;;;;;;;;;;;;;;4452739;32;20163;-79
2023/03/20 05:53:13;;;;;;;28.58;18.70;;;;;;;;;;4452787;32;19947;-80
2023/03/20 05:55:38;;;;;;;39.00;18.95;;;;;;;;;;4437928;32;20064;-79
2023/03/20 05:58:03;;;;;;;;;;;;;;;;;;4423399;32;20018;-79
2023/03/20 06:00:28;;;;;;;34.53;19.15;;;;;;;;;;4421552;32;19988;-79
2023/03/20 06:02:53;;;;;;;;;;;;;;;;;;4423200;32;20434;-77
2023/03/20 06:05:19;;;;;;;37.28;19.50;;;;;;;;;;4437000;32;19948;-77
2023/03/20 06:07:44;;;;;;;;;;;;;;;;;;4438506;32;20078;-77
2023/03/20 06:10:09;;;;;;;36.22;20.70;;;;;;;;;;4436380;32;19941;-78
2023/03/20 06:12:35;;;;;;;37.47;20.20;;;;;;;;;;4435625;32;20021;-78
2023/03/20 06:15:00;;;;;;;;;;;;;;;;;;4436079;32;20418;-79
2023/03/20 06:17:25;;;;;;;36.25;19.33;;;;;;;;;;4438146;32;19968;-78
2023/03/20 06:19:50;;;;;;;;;;;;;;;;;;4438377;32;20411;-80
2023/03/20 06:22:16;;;;;;;26.80;17.98;;;;;;;;;;4438508;32;19971;-79
2023/03/20 06:24:42;;;;;;;;;;;;;;;;;;4441647;32;20066;-79
2023/03/20 06:27:07;;;;;;;31.52;17.67;;;;;;;;;;4441844;32;19945;-80
2023/03/20 06:29:32;;;;;;;;;;;;;;;;;;4439110;32;20013;-79
2023/03/20 06:31:57;;;;;;;30.83;17.30;;;;;;;;;;4440886;32;19947;-79
2023/03/20 06:34:22;;;;;;;36.85;17.73;;;;;;;;;;4444478;32;20410;-77
2023/03/20 06:36:47;;;;;;;;;;;;;;;;;;4438233;32;20018;-80
2023/03/20 06:39:13;;;;;;;30.62;17.00;;;;;;;;;;4437434;32;19932;-78
2023/03/20 06:41:38;;;;;;;;;;;;;;;;;;4437257;32;20159;-79
2023/03/20 06:44:04;;;;;;;30.45;16.85;;;;;;;;;;4439352;32;19964;-78
2023/03/20 06:46:29;;;;;;;;;;;;;;;;;;4437927;32;20052;-79
2023/03/20 06:48:54;;;;;;;26.75;15.48;;;;;;;;;;4436026;32;19970;-78
2023/03/20 06:51:19;;;;;;;;;;;;;;;;;;4442893;32;20026;-79
2023/03/20 06:53:45;;;;;;;28.65;15.15;;;;;;;;;;4445535;32;19940;-78
2023/03/20 06:56:10;;;;;;;;;;;;;;;;;;4427749;32;20470;-79
2023/03/20 06:58:35;;;;;;;26.67;14.45;;;;;;;;;;4437353;32;19980;-79
2023/03/20 07:01:01;;;;;;;;;;;;;;;;;;4422448;32;20551;-79
2023/03/20 07:03:27;;;;;;;32.88;15.85;;;;;;;;;;4422121;32;20289;-79
2023/03/20 07:05:52;;;;;;;36.47;14.93;;;;;;;;;;4423935;32;20018;-79
2023/03/20 07:08:17;;;;;;;;;;;;;;;;;;4436973;32;20014;-80
2023/03/20 07:10:42;;;;;;;32.83;15.10;;;;;;;;;;4436297;32;19967;-79
2023/03/20 07:13:09;;;;;;;;;;;;;;;;;;4438053;32;20121;-80
2023/03/20 07:15:34;;;;;;;30.00;14.10;;;;;;;;;;4436295;32;19941;-77
2023/03/20 07:17:59;;;;;;;;;;;;;;;;;;4442204;32;20044;-85
2023/03/20 07:20:25;;;;;;;29.92;12.30;;;;;;;;;;4440199;32;19958;-84
2023/03/20 07:22:50;;;;;;;;;;;;;;;;;;4441764;32;20025;-86
2023/03/20 07:25:15;;;;;;;23.45;12.18;;;;;;;;;;4441053;32;20035;-85
2023/03/20 07:27:41;;;;;;;;;;;;;;;;;;4427215;32;20022;-86
2023/03/20 07:30:07;;;;;;;21.58;11.15;;;;;;;;;;4441548;32;19971;-85
2023/03/20 07:32:33;;;;;;;;;;;;;;;;;;4430506;32;20069;-84
2023/03/20 07:34:59;;;;;;;25.85;10.80;;;;;;;;;;4443805;32;19937;-85
2023/03/20 07:37:24;;;;;;;;;;;;;;;;;;4430122;32;20018;-85
2023/03/20 07:39:49;;;;;;;22.60;10.68;;;;;;;;;;4429774;32;19967;-85
2023/03/20 07:42:15;;;;;;;;;;;;;;;;;;4445578;32;20040;-85
2023/03/20 07:44:40;;;;;;;21.90;10.82;;;;;;;;;;4441067;32;19954;-86
2023/03/20 07:47:06;;;;;;;23.17;10.20;;;;;;;;;;4430594;32;20090;-83
2023/03/20 07:49:31;;;;;;;;;;;;;;;;;;4431413;32;20009;-85
2023/03/20 07:51:56;;;;;;;18.65;10.82;;;;;;;;;;4432409;32;19956;-83
2023/03/20 07:54:22;;;;;;;22.75;9.55;;;;;;;;;;4438506;32;20044;-82
2023/03/20 07:56:47;;;;;;;;;;;;;;;;;;4429554;32;20010;-82
2023/03/20 07:59:12;;;;;;;23.00;9.90;;;;;;;;;;4429849;32;19941;-84
2023/03/20 08:01:37;;;;;;;;;;;;;;;;;;4440762;32;20060;-86
2023/03/20 08:04:02;;;;;;;22.58;10.07;;;;;;;;;;4440338;32;20328;-87
2023/03/20 08:06:27;;;;;;;;;;;;;;;;;;4428042;32;20062;-85
2023/03/20 08:08:53;;;;;;;30.60;10.82;;;;;;;;;;4445275;32;19978;-86
2023/03/20 08:11:18;;;;;;;;;;;;;;;;;;4438020;32;20070;-84
2023/03/20 08:13:43;;;;;;;24.42;10.18;;;;;;;;;;4442370;32;19937;-80
2023/03/20 08:16:08;;;;;;;;;;;;;;;;;;4453871;32;20200;-80
2023/03/20 08:18:34;;;;;;;28.65;11.75;;;;;;;;;;4448072;32;19965;-80
2023/03/20 08:20:59;;;;;;;;;;;;;;;;;;4430543;32;20045;-78
2023/03/20 08:23:25;;;;;;;26.00;10.38;;;;;;;;;;4429995;32;20036;-81
2023/03/20 08:25:50;;;;;;;;;;;;;;;;;;4442439;32;20170;-80
2023/03/20 08:28:15;;;;;;;22.25;10.20;;;;;;;;;;4426855;32;19937;-80
2023/03/20 08:30:41;;;;;;;23.30;10.43;;;;;;;;;;4425190;32;20042;-74
2023/03/20 08:33:06;;;;;;;;;;;;;;;;;;4439459;32;20116;-75
2023/03/20 08:35:31;;;;;;;20.05;9.50;;;;;;;;;;4437714;32;19941;-75
2023/03/20 08:37:56;;;;;;;;;;;;;;;;;;4439148;32;20017;-76
2023/03/20 08:40:21;;;;;;;28.00;10.90;;;;;;;;;;4439873;32;20008;-76
2023/03/20 08:42:46;;;;;;;;;;;;;;;;;;4441622;32;20152;-75
2023/03/20 08:45:12;;;;;;;23.23;9.95;;;;;;;;;;4440322;32;19988;-76
2023/03/20 08:47:37;;;;;;;24.73;9.55;;;;;;;;;;4441247;32;20044;-77
2023/03/20 08:50:03;;;;;;;;;;;;;;;;;;4438857;32;20163;-76
2023/03/20 08:52:28;;;;;;;26.60;9.25;;;;;;;;;;4438433;32;20276;-77
2023/03/20 08:54:53;;;;;;;;;;;;;;;;;;4438540;32;20052;-77
2023/03/20 08:57:19;;;;;;;23.15;10.38;;;;;;;;;;4423748;32;19932;-77
2023/03/20 08:59:44;;;;;;;;;;;;;;;;;;4425334;32;20046;-78
2023/03/20 09:02:10;;;;;;;22.00;9.82;;;;;;;;;;4439705;32;19974;-79
2023/03/20 09:04:35;;;;;;;27.50;9.38;;;;;;;;;;4438163;32;20101;-78
2023/03/20 09:07:01;;;;;;;;;;;;;;;;;;4424485;32;20043;-78
2023/03/20 09:09:28;;;;;;;19.62;11.18;;;;;;;;;;4424191;32;19978;-78
2023/03/20 09:11:54;;;;;;;22.40;10.32;;;;;;;;;;4438226;32;20057;-78
2023/03/20 09:14:19;;;;;;;;;;;;;;;;;;4438920;32;20097;-78
2023/03/20 09:16:44;;;;;;;24.08;11.23;;;;;;;;;;4437688;32;20282;-79
2023/03/20 09:19:10;;;;;;;;;;;;;;;;;;4438885;32;20117;-79
2023/03/20 09:21:35;;;;;;;27.30;12.48;;;;;;;;;;4437987;32;19978;-79
2023/03/20 09:24:00;;;;;;;;;;;;;;;;;;4439745;32;20044;-79
2023/03/20 09:26:25;;;;;;;24.75;13.10;;;;;;;;;;4439684;32;19933;-78
2023/03/20 09:28:50;;;;;;;22.67;12.68;;;;;;;;;;4441803;32;20339;-80
2023/03/20 09:31:16;;;;;;;;;;;;;;;;;;4423505;32;20091;-80
2023/03/20 09:33:41;;;;;;;20.50;12.68;;;;;;;;;;4438337;32;20286;-78
2023/03/20 09:36:10;;;;;;;34.42;12.32;;;;;;;;;;4423181;32;20061;-78
2023/03/20 09:38:35;;;;;;;21.10;12.05;;;;;;;;;;4424179;32;20336;-78
2023/03/20 09:41:00;;;;;;;;;;;;;;;;;;4423682;32;20066;-78
2023/03/20 09:43:41;;;;;;;30.52;11.65;;;;;;;;;;4437962;32;20016;-79
2023/03/20 09:46:24;;;;;;;28.95;12.75;;;;;;;;;;4438072;32;20074;-78
2023/03/20 09:48:57;;;;;;;27.05;12.73;;;;;;;;;;4438379;32;20029;-79
2023/03/20 09:51:44;;;;;;;24.48;11.90;;;;;;;;;;4437517;32;20052;-77
2023/03/20 09:54:15;;;;;;;23.80;13.48;;;;;;;;;;4423195;32;20087;-76
2023/03/20 09:56:40;;;;;;;31.98;14.68;;;;;;;;;;4437348;32;20013;-75
2023/03/20 09:59:05;;;;;;;;;;;;;;;;;;4437401;32;20123;-76
2023/03/20 10:01:46;;;;;;;28.83;14.48;;;;;;;;;;4437280;32;19960;-77
2023/03/20 10:04:11;;;;;;;23.50;14.90;;;;;;;;;;4438148;32;20029;-78
2023/03/20 10:06:36;;;;;;;;;;;;;;;;;;4436265;32;20336;-77
2023/03/20 10:09:08;;;;;;;31.10;15.93;;;;;;;;;;4436544;32;20276;-78
2023/03/20 10:11:48;;;;;;;30.35;16.20;;;;;;;;;;4437054;32;20359;-78
2023/03/20 10:14:28;;;;;;;28.45;15.77;;;;;;;;;;4437314;32;20445;-78
2023/03/20 10:17:01;;;;;;;31.60;15.20;;;;;;;;;;4438794;32;20021;-79
2023/03/20 10:19:28;;;;;;;30.65;15.15;;;;;;;;;;4423038;32;20078;-79
2023/03/20 10:22:12;;;;;;;24.63;14.57;;;;;;;;;;4437473;32;20056;-79
2023/03/20 10:24:40;;;;;;;29.73;15.48;;;;;;;;;;4426903;32;20080;-79
2023/03/20 10:27:17;;;;;;;27.80;15.50;;;;;;;;;;4422664;32;20023;-80
2023/03/20 10:29:45;;;;;;;26.10;15.00;;;;;;;;;;4408587;32;20064;-80
2023/03/20 10:32:14;;;;;;;26.48;16.02;;;;;;;;;;4426009;32;20026;-80
2023/03/20 10:34:57;;;;;;;33.40;16.33;;;;;;;;;;4407999;32;20351;-80
2023/03/20 10:37:26;;;;;;;35.35;16.02;;;;;;;;;;4421540;32;20383;-80
2023/03/20 10:39:57;;;;;;;27.52;16.35;;;;;;;;;;4421040;32;20321;-78
2023/03/20 10:42:26;;;;;;;32.38;16.37;;;;;;;;;;4422452;32;20044;-79
2023/03/20 10:45:03;;;;;;;30.30;16.20;;;;;;;;;;4407378;32;20074;-80
2023/03/20 10:47:30;;;;;;;30.15;17.60;;;;;;;;;;4407316;32;20377;-80
2023/03/20 10:49:57;;;;;;;33.50;17.83;;;;;;;;;;4421392;32;20045;-80
2023/03/20 10:52:32;;;;;;;28.05;17.02;;;;;;;;;;4408060;32;20022;-80
2023/03/20 10:54:59;;;;;;;34.13;16.27;;;;;;;;;;4424019;32;20069;-80
2023/03/20 10:57:26;;;;;;;31.95;17.08;;;;;;;;;;4424673;32;20022;-81
2023/03/20 10:59:53;;;;;;;30.15;16.42;;;;;;;;;;4414952;32;20081;-80
2023/03/20 11:02:20;;;;;;;31.15;15.13;;;;;;;;;;4414068;32;20088;-81
2023/03/20 11:04:46;;;;;;;35.53;15.55;;;;;;;;;;4416575;32;20030;-81
2023/03/20 11:07:11;;;;;;;;;;;;;;;;;;4433333;32;20075;-81
2023/03/20 11:09:37;;;;;;;34.30;14.75;;;;;;;;;;4430024;32;19976;-81
2023/03/20 11:12:02;;;;;;;31.77;15.88;;;;;;;;;;4454313;32;20022;-80
2023/03/20 11:14:27;;;;;;;;;;;;;;;;;;4454711;32;20056;-82
2023/03/20 11:16:54;;;;;;;37.25;19.08;;;;;;;;;;4439668;32;19947;-83
2023/03/20 11:19:20;;;;;;;38.28;18.75;;;;;;;;;;4456236;32;20037;-81
2023/03/20 11:21:54;;;;;;;39.53;19.92;;;;;;;;;;4446193;32;20447;-81
2023/03/20 11:24:35;;;;;;;29.37;17.42;;;;;;;;;;4449444;32;20044;-80
2023/03/20 11:27:11;;;;;;;39.63;17.83;;;;;;;;;;4447356;32;20104;-80
2023/03/20 11:29:36;;;;;;;33.85;17.73;;;;;;;;;;4444152;32;20481;-80
2023/03/20 11:32:02;;;;;;;;;;;;;;;;;;4442368;32;20017;-80
2023/03/20 11:34:29;;;;;;;34.03;17.60;;;;;;;;;;4441531;32;20330;-81
2023/03/20 11:37:05;;;;;;;28.42;17.42;;;;;;;;;;4440793;32;20333;-81
2023/03/20 11:39:34;;;;;;;30.93;16.93;;;;;;;;;;4441963;32;20109;-80
2023/03/20 11:42:04;;;;;;;30.17;17.33;;;;;;;;;;4454963;32;20434;-82
2023/03/20 11:44:30;;;;;;;34.75;16.33;;;;;;;;;;4413124;32;20040;-81
2023/03/20 11:47:02;;;;;;;35.17;16.83;;;;;;;;;;4423761;32;20456;-81
2023/03/20 11:49:28;;;;;;;34.70;15.98;;;;;;;;;;4411894;32;20081;-81
2023/03/20 11:51:56;;;;;;;;;;;;;;;;;;4431227;32;20465;-81
2023/03/20 11:54:22;;;;;;;35.90;14.80;;;;;;;;;;4438218;32;19945;-81
2023/03/20 11:57:05;;;;;;;33.22;16.05;;;;;;;;;;4439273;32;20018;-80
2023/03/20 11:59:32;;;;;;;30.67;15.60;;;;;;;;;;4440424;32;20460;-81
2023/03/20 12:01:58;;;;;;;37.00;18.05;;;;;;;;;;4425602;32;20055;-80
2023/03/20 12:04:24;;;;;;;;;;;;;;;;;;4409744;32;20030;-79
2023/03/20 12:06:53;;;;;;;36.25;16.02;;;;;;;;;;4410150;32;20353;-79
2023/03/20 12:09:26;;;;;;;32.35;15.60;;;;;;;;;;4424031;32;20358;-79
2023/03/20 12:11:57;;;;;;;34.40;17.58;;;;;;;;;;4420550;32;20410;-79
2023/03/20 12:14:26;;;;;;;43.63;18.95;;;;;;;;;;4437014;32;20070;-79
2023/03/20 12:16:54;;;;;;;34.05;17.27;;;;;;;;;;4436270;32;20022;-78
2023/03/20 12:19:21;;;;;;;33.13;16.52;;;;;;;;;;4429554;32;20033;-79
2023/03/20 12:21:51;;;;;;;41.37;18.08;;;;;;;;;;4425977;32;20473;-78
2023/03/20 12:24:30;;;;;;;34.10;16.60;;;;;;;;;;4431822;32;20090;-78
2023/03/20 12:26:59;;;;;;;28.58;17.73;;;;;;;;;;4427111;32;20073;-79
2023/03/20 12:29:30;;;;;;;32.38;15.32;;;;;;;;;;4427089;32;20029;-78
2023/03/20 12:32:02;;;;;;;26.85;15.30;;;;;;;;;;4426784;32;20034;-77
2023/03/20 12:34:30;;;;;;;29.35;15.98;;;;;;;;;;4426847;32;20021;-78
2023/03/20 12:36:56;;;;;;;26.45;15.80;;;;;;;;;;4438130;32;20021;-79
2023/03/20 12:39:24;;;;;;;;;;;;;;;;;;4424535;32;20056;-77
2023/03/20 12:41:56;;;;;;;29.33;16.00;;;;;;;;;;4438856;32;19957;-77
2023/03/20 12:44:27;;;;;;;36.10;15.80;;;;;;;;;;4423966;32;20022;-78
2023/03/20 12:46:55;;;;;;;28.25;15.85;;;;;;;;;;4425277;32;20030;-78
2023/03/20 12:49:28;;;;;;;29.98;15.30;;;;;;;;;;4423382;32;20060;-79
2023/03/20 12:52:01;;;;;;;28.87;15.93;;;;;;;;;;4430083;32;20025;-77
2023/03/20 12:54:27;;;;;;;30.02;17.12;;;;;;;;;;4438619;32;20080;-78
2023/03/20 12:56:52;;;;;;;;;;;;;;;;;;4425468;32;20418;-76
2023/03/20 12:59:24;;;;;;;30.92;17.48;;;;;;;;;;4437333;32;19941;-77
2023/03/20 13:01:56;;;;;;;29.83;18.23;;;;;;;;;;4423230;32;20082;-77
2023/03/20 13:04:27;;;;;;;32.97;18.20;;;;;;;;;;4424726;32;20356;-77
2023/03/20 13:06:52;;;;;;;28.67;19.60;;;;;;;;;;4437667;32;20048;-77
2023/03/20 13:09:17;;;;;;;;;;;;;;;;;;4437476;32;20018;-78
2023/03/20 13:11:51;;;;;;;31.55;20.73;;;;;;;;;;4423324;32;19952;-78
2023/03/20 13:14:25;;;;;;;39.80;21.50;;;;;;;;;;4438730;32;20170;-75
2023/03/20 13:16:55;;;;;;;33.35;22.10;;;;;;;;;;4439958;32;20056;-74
2023/03/20 13:19:23;;;;;;;38.75;24.05;;;;;;;;;;4439535;32;20048;-75
2023/03/20 13:21:55;;;;;;;39.90;23.20;;;;;;;;;;4423461;32;20041;-74
2023/03/20 13:24:31;;;;;;;40.58;23.65;;;;;;;;;;4438001;32;20026;-74
2023/03/20 13:27:06;;;;;;;45.22;25.08;;;;;;;;;;4437270;32;20053;-74
2023/03/20 13:29:43;;;;;;;50.05;25.83;;;;;;;;;;4437034;32;20018;-73
2023/03/20 13:32:14;;;;;;;38.42;24.83;;;;;;;;;;4438629;32;20362;-74
2023/03/20 13:34:43;;;;;;;37.35;23.92;;;;;;;;;;4424271;32;20021;-75
2023/03/20 13:37:18;;;;;;;51.83;25.10;;;;;;;;;;4436561;32;20021;-75
2023/03/20 13:39:46;;;;;;;42.47;25.02;;;;;;;;;;4436729;32;20018;-74
2023/03/20 13:42:13;;;;;;;40.50;25.27;;;;;;;;;;4428503;32;20445;-74
2023/03/20 13:44:41;;;;;;;45.92;24.98;;;;;;;;;;4421112;32;20033;-74
2023/03/20 13:47:10;;;;;;;38.08;24.70;;;;;;;;;;4423333;32;20415;-75
2023/03/20 13:49:37;;;;;;;40.30;24.50;;;;;;;;;;4423537;32;20091;-74
2023/03/20 13:52:13;;;;;;;43.20;26.85;;;;;;;;;;4421680;32;20179;-74
2023/03/20 13:54:57;;;;;;;37.28;25.30;;;;;;;;;;4421583;32;20022;-73
2023/03/20 13:57:43;;;;;;;37.80;23.92;;;;;;;;;;4421543;32;20026;-73
2023/03/20 14:00:27;;;;;;;43.90;26.87;;;;;;;;;;4423083;32;20421;-73
2023/03/20 14:03:02;;;;;;;36.70;24.58;;;;;;;;;;4421413;32;20068;-73
2023/03/20 14:05:34;;;;;;;42.80;26.80;;;;;;;;;;4435051;32;20025;-75
2023/03/20 14:08:19;;;;;;;38.97;26.85;;;;;;;;;;4422490;32;20018;-75
2023/03/20 14:10:44;;;;;;;46.00;28.50;;;;;;;;;;4436242;32;20162;-73
2023/03/20 14:13:09;;;;;;;;;;;;;;;;;;4422370;32;20029;-74
2023/03/20 14:15:37;;;;;;;39.35;26.80;;;;;;;;;;4436276;32;20295;-74
2023/03/20 14:18:06;;;;;;;49.38;30.08;;;;;;;;;;4437515;32;20505;-73
2023/03/20 14:20:33;;;;;;;49.72;30.58;;;;;;;;;;4437429;32;20021;-73
2023/03/20 14:22:59;;;;;;;45.92;27.02;;;;;;;;;;4429720;32;20033;-74
2023/03/20 14:25:24;;;;;;;;;;;;;;;;;;4427883;32;20418;-73
2023/03/20 14:27:55;;;;;;;40.78;27.95;;;;;;;;;;4429224;32;19959;-74
2023/03/20 14:30:30;;;;;;;38.13;26.50;;;;;;;;;;4419980;32;20017;-73
2023/03/20 14:32:59;;;;;;;49.30;29.83;;;;;;;;;;4417463;32;20052;-73
2023/03/20 14:35:28;;;;;;;39.83;28.67;;;;;;;;;;4431561;32;20060;-74
2023/03/20 14:38:08;;;;;;;41.95;30.58;;;;;;;;;;4429094;32;20033;-73
2023/03/20 14:40:37;;;;;;;48.80;32.08;;;;;;;;;;4421164;32;20029;-75
2023/03/20 14:43:23;;;;;;;47.05;30.20;;;;;;;;;;4437023;32;20018;-74
2023/03/20 14:45:56;;;;;;;50.97;30.20;;;;;;;;;;4435402;32;20034;-74
2023/03/20 14:48:30;;;;;;;51.53;29.60;;;;;;;;;;4436284;32;20100;-75
2023/03/20 14:51:15;;;;;;;44.03;28.58;;;;;;;;;;4435781;32;20407;-75
2023/03/20 14:53:40;;;;;;;45.50;28.60;;;;;;;;;;4436406;32;20018;-75
2023/03/20 14:56:05;;;;;;;;;;;;;;;;;;4436182;32;20066;-75
2023/03/20 14:58:35;;;;;;;50.40;27.40;;;;;;;;;;4436589;32;19969;-75